createdAt,value
2019-05-10T00:00:54.080Z,78.85
2019-05-10T00:03:38.453Z,78.88
2019-05-10T00:06:23.017Z,78.42
2019-05-10T00:08:48.784Z,78.79
2019-05-10T00:11:21.677Z,78.80
2019-05-10T00:13:58.265Z,78.57
2019-05-10T00:16:25.117Z,78.64
2019-05-10T00:18:50.984Z,79.47
2019-05-10T00:21:16.856Z,79.76
2019-05-10T00:23:42.712Z,78.88
2019-05-10T00:26:08.624Z,80.81
2019-05-10T00:28:34.505Z,79.91
2019-05-10T00:31:00.364Z,79.61
2019-05-10T00:33:26.229Z,79.95
2019-05-10T00:35:52.098Z,79.88
2019-05-10T00:38:17.958Z,83.35
2019-05-10T00:40:43.845Z,84.67
2019-05-10T00:43:10.580Z,84.62
2019-05-10T00:45:36.435Z,83.62
2019-05-10T00:48:02.284Z,84.35
2019-05-10T00:50:28.141Z,84.16
2019-05-10T00:52:54.002Z,84.76
2019-05-10T00:55:19.948Z,84.04
2019-05-10T00:57:45.824Z,83.10
2019-05-10T01:00:11.985Z,83.17
2019-05-10T01:02:37.840Z,84.38
2019-05-10T01:05:04.634Z,84.80
2019-05-10T01:07:30.490Z,85.50
2019-05-10T01:09:56.335Z,84.58
2019-05-10T01:12:22.204Z,83.60
2019-05-10T01:14:48.114Z,85.52
2019-05-10T01:17:13.973Z,85.77
2019-05-10T01:19:39.904Z,86.12
2019-05-10T01:22:05.755Z,86.43
2019-05-10T01:24:31.613Z,85.45
2019-05-10T01:26:57.477Z,86.55
2019-05-10T01:29:23.334Z,85.84
2019-05-10T01:31:49.207Z,85.75
2019-05-10T01:34:15.071Z,86.10
2019-05-10T01:36:40.938Z,86.16
2019-05-10T01:39:06.803Z,86.64
2019-05-10T01:41:32.753Z,86.51
2019-05-10T01:43:58.633Z,86.28
2019-05-10T01:46:24.517Z,86.36
2019-05-10T01:48:50.370Z,86.83
2019-05-10T01:51:16.241Z,86.46
2019-05-10T01:53:42.111Z,86.24
2019-05-10T01:56:07.976Z,86.19
2019-05-10T01:58:33.834Z,86.13
2019-05-10T02:00:59.763Z,86.39
2019-05-10T02:03:25.628Z,85.76
2019-05-10T02:05:51.475Z,86.08
2019-05-10T02:08:17.331Z,86.29
2019-05-10T02:10:43.194Z,85.64
2019-05-10T02:13:09.069Z,85.90
2019-05-10T02:15:35.127Z,86.10
2019-05-10T02:18:00.980Z,86.45
2019-05-10T02:20:26.856Z,86.51
2019-05-10T02:22:52.710Z,86.18
2019-05-10T02:25:18.567Z,86.01
2019-05-10T02:27:44.434Z,86.16
2019-05-10T02:30:10.607Z,86.67
2019-05-10T02:32:36.489Z,85.96
2019-05-10T02:35:04.953Z,86.49
2019-05-10T02:37:31.648Z,86.06
2019-05-10T02:39:57.504Z,86.14
2019-05-10T02:42:23.359Z,86.11
2019-05-10T02:44:49.239Z,85.83
2019-05-10T02:47:15.918Z,85.42
2019-05-10T02:49:41.793Z,85.35
2019-05-10T02:52:07.949Z,86.61
2019-05-10T02:54:34.010Z,86.22
2019-05-10T02:57:01.702Z,86.18
2019-05-10T02:59:28.868Z,86.55
2019-05-10T03:01:55.344Z,86.15
2019-05-10T03:04:23.605Z,86.47
2019-05-10T03:06:53.277Z,86.29
2019-05-10T03:09:22.931Z,86.83
2019-05-10T03:11:48.791Z,86.23
2019-05-10T03:14:18.244Z,85.36
2019-05-10T03:16:48.923Z,85.30
2019-05-10T03:19:17.985Z,84.98
2019-05-10T03:21:47.049Z,84.90
2019-05-10T03:24:12.905Z,84.88
2019-05-10T03:26:50.983Z,84.70
2019-05-10T03:29:09.328Z,85.08
2019-05-10T03:31:35.503Z,84.96
2019-05-10T03:34:01.411Z,84.93
2019-05-10T03:36:27.494Z,84.89
2019-05-10T03:38:53.641Z,84.36
2019-05-10T03:41:19.519Z,84.54
2019-05-10T03:43:45.369Z,84.17
2019-05-10T03:46:11.221Z,84.16
2019-05-10T03:48:37.100Z,84.28
2019-05-10T03:51:02.955Z,84.62
2019-05-10T03:53:28.828Z,83.97
2019-05-10T03:55:54.690Z,84.42
2019-05-10T03:58:20.545Z,84.68
2019-05-10T04:00:46.434Z,84.82
2019-05-10T04:03:12.307Z,84.42
2019-05-10T04:05:38.149Z,85.36
2019-05-10T04:08:03.997Z,84.65
2019-05-10T04:10:29.891Z,85.54
2019-05-10T04:12:55.838Z,84.44
2019-05-10T04:15:21.694Z,85.06
2019-05-10T04:17:50.160Z,85.08
2019-05-10T04:20:15.646Z,85.07
2019-05-10T04:22:41.496Z,84.76
2019-05-10T04:25:07.671Z,84.80
2019-05-10T04:27:33.560Z,84.24
2019-05-10T04:29:59.408Z,83.96
2019-05-10T04:32:25.274Z,83.80
2019-05-10T04:34:51.133Z,84.02
2019-05-10T04:37:16.976Z,83.51
2019-05-10T04:39:42.941Z,83.57
2019-05-10T04:42:08.786Z,83.58
2019-05-10T04:44:34.641Z,83.86
2019-05-10T04:47:00.499Z,83.85
2019-05-10T04:49:26.370Z,82.85
2019-05-10T04:51:53.101Z,82.85
2019-05-10T04:54:18.969Z,83.08
2019-05-10T04:56:44.813Z,83.38
2019-05-10T04:59:10.671Z,83.48
2019-05-10T05:01:36.579Z,83.30
2019-05-10T05:04:02.537Z,82.83
2019-05-10T05:06:28.420Z,82.47
2019-05-10T05:08:54.259Z,81.92
2019-05-10T05:11:20.120Z,82.16
2019-05-10T05:13:45.968Z,82.50
2019-05-10T05:16:11.832Z,82.44
2019-05-10T05:18:37.685Z,82.83
2019-05-10T05:21:03.549Z,82.85
2019-05-10T05:23:29.462Z,82.15
2019-05-10T05:25:55.393Z,81.98
2019-05-10T05:28:23.302Z,81.72
2019-05-10T05:30:49.026Z,82.36
2019-05-10T05:33:14.883Z,81.61
2019-05-10T05:35:40.754Z,81.07
2019-05-10T05:38:06.609Z,80.78
2019-05-10T05:40:32.477Z,79.16
2019-05-10T05:43:02.671Z,78.59
2019-05-10T05:45:28.358Z,78.00
2019-05-10T05:47:53.882Z,77.70
2019-05-10T05:50:19.739Z,77.36
2019-05-10T05:52:45.642Z,77.44
2019-05-10T05:55:11.827Z,76.75
2019-05-10T05:57:37.660Z,76.04
2019-05-10T06:00:06.665Z,75.92
2019-05-10T06:02:32.691Z,75.20
2019-05-10T06:04:58.546Z,74.82
2019-05-10T06:07:24.407Z,74.49
2019-05-10T06:09:50.276Z,74.21
2019-05-10T06:12:16.133Z,73.60
2019-05-10T06:14:43.071Z,73.96
2019-05-10T06:17:09.780Z,73.45
2019-05-10T06:19:35.657Z,72.69
2019-05-10T06:22:04.609Z,72.74
2019-05-10T06:24:29.356Z,71.73
2019-05-10T06:26:58.202Z,72.89
2019-05-10T06:29:23.038Z,72.84
2019-05-10T06:31:48.951Z,73.00
2019-05-10T06:34:14.798Z,73.21
2019-05-10T06:36:40.665Z,73.35
2019-05-10T06:39:06.726Z,73.45
2019-05-10T06:41:32.779Z,73.67
2019-05-10T06:43:58.645Z,73.83
2019-05-10T06:46:29.806Z,71.85
2019-05-10T06:48:52.280Z,71.26
2019-05-10T06:51:18.182Z,69.78
2019-05-10T06:53:52.114Z,69.41
2019-05-10T06:56:12.674Z,68.53
2019-05-10T06:58:38.602Z,65.34
2019-05-10T07:01:04.492Z,65.35
2019-05-10T07:03:30.337Z,65.75
2019-05-10T07:05:56.192Z,66.30
2019-05-10T07:08:22.079Z,67.12
2019-05-10T07:10:47.937Z,65.86
2019-05-10T07:13:13.813Z,65.65
2019-05-10T07:15:42.286Z,64.46
2019-05-10T07:18:07.546Z,64.53
2019-05-10T07:20:33.402Z,66.37
2019-05-10T07:23:00.070Z,65.99
2019-05-10T07:25:27.046Z,65.07
2019-05-10T07:27:52.922Z,66.72
2019-05-10T07:30:33.353Z,66.72
2019-05-10T07:32:59.673Z,66.05
2019-05-10T07:35:30.905Z,66.12
2019-05-10T07:37:54.832Z,66.37
2019-05-10T07:40:20.682Z,66.76
2019-05-10T07:42:47.158Z,67.94
2019-05-10T07:45:13.090Z,66.76
2019-05-10T07:47:39.057Z,65.46
2019-05-10T07:50:09.955Z,65.46
2019-05-10T07:52:36.242Z,62.51
2019-05-10T07:55:00.974Z,60.41
2019-05-10T07:57:27.149Z,63.28
2019-05-10T07:59:57.482Z,63.98
2019-05-10T08:02:20.848Z,63.44
2019-05-10T08:04:46.698Z,65.25
2019-05-10T08:07:12.566Z,64.84
2019-05-10T08:09:44.819Z,65.40
2019-05-10T08:12:06.165Z,65.73
2019-05-10T08:14:32.019Z,64.48
2019-05-10T08:17:01.749Z,63.68
2019-05-10T08:19:25.658Z,64.76
2019-05-10T08:21:56.524Z,64.91
2019-05-10T08:24:22.047Z,63.63
2019-05-10T08:26:47.734Z,63.14
2019-05-10T08:29:16.961Z,63.11
2019-05-10T08:31:50.535Z,63.17
2019-05-10T08:34:11.645Z,62.65
2019-05-10T08:36:42.179Z,62.69
2019-05-10T08:39:10.670Z,63.34
2019-05-10T08:41:33.177Z,63.40
2019-05-10T08:43:59.045Z,63.58
2019-05-10T08:46:37.397Z,64.18
2019-05-10T08:48:53.815Z,63.69
2019-05-10T08:51:19.926Z,63.92
2019-05-10T08:53:47.167Z,62.84
2019-05-10T08:56:21.011Z,63.47
2019-05-10T08:58:42.243Z,63.30
2019-05-10T09:01:20.072Z,63.02
2019-05-10T09:03:36.158Z,61.93
2019-05-10T09:06:03.549Z,62.61
2019-05-10T09:08:32.536Z,61.53
2019-05-10T09:10:57.527Z,60.78
2019-05-10T09:13:23.388Z,61.96
2019-05-10T09:15:56.019Z,62.02
2019-05-10T09:18:17.238Z,63.04
2019-05-10T09:20:43.151Z,63.35
2019-05-10T09:23:15.365Z,62.16
2019-05-10T09:25:36.872Z,62.17
2019-05-10T09:28:11.670Z,62.37
2019-05-10T09:30:35.420Z,60.77
2019-05-10T09:33:08.291Z,61.44
2019-05-10T09:35:28.914Z,60.56
2019-05-10T09:37:58.564Z,60.09
2019-05-10T09:40:22.541Z,60.28
2019-05-10T09:42:48.520Z,61.99
2019-05-10T09:45:14.573Z,62.63
2019-05-10T09:47:43.436Z,63.35
2019-05-10T09:50:08.583Z,62.95
2019-05-10T09:52:34.440Z,62.93
2019-05-10T09:55:03.971Z,61.78
2019-05-10T09:57:32.025Z,61.83
2019-05-10T09:59:57.281Z,61.06
2019-05-10T10:02:27.251Z,61.71
2019-05-10T10:04:50.994Z,63.08
2019-05-10T10:07:18.928Z,61.84
2019-05-10T10:09:45.643Z,62.83
2019-05-10T10:12:12.368Z,62.44
2019-05-10T10:14:42.587Z,62.36
2019-05-10T10:17:08.134Z,63.74
2019-05-10T10:19:33.741Z,63.75
2019-05-10T10:21:59.615Z,64.08
2019-05-10T10:24:25.464Z,63.44
2019-05-10T10:26:53.854Z,64.27
2019-05-10T10:29:19.229Z,64.93
2019-05-10T10:31:53.020Z,63.90
2019-05-10T10:34:12.859Z,64.82
2019-05-10T10:36:42.619Z,64.55
2019-05-10T10:39:07.436Z,63.82
2019-05-10T10:41:33.452Z,63.49
2019-05-10T10:43:59.297Z,64.01
2019-05-10T10:46:25.183Z,63.04
2019-05-10T10:48:51.522Z,63.36
2019-05-10T10:51:18.218Z,63.70
2019-05-10T10:53:44.265Z,64.43
2019-05-10T10:56:10.121Z,64.07
2019-05-10T10:58:36.921Z,64.16
2019-05-10T11:01:10.554Z,64.39
2019-05-10T11:03:32.409Z,64.65
2019-05-10T11:05:58.274Z,64.82
2019-05-10T11:08:24.144Z,66.34
2019-05-10T11:10:50.717Z,67.74
2019-05-10T11:13:23.701Z,67.32
2019-05-10T11:15:44.521Z,65.76
2019-05-10T11:18:10.402Z,66.84
2019-05-10T11:20:36.428Z,66.95
2019-05-10T11:23:02.505Z,66.59
2019-05-10T11:25:28.354Z,67.59
2019-05-10T11:27:58.629Z,68.04
2019-05-10T11:30:22.181Z,68.53
2019-05-10T11:32:48.030Z,69.82
2019-05-10T11:35:19.002Z,70.30
2019-05-10T11:37:45.399Z,72.06
2019-05-10T11:40:11.336Z,73.65
2019-05-10T11:42:42.179Z,73.92
2019-05-10T11:45:05.665Z,74.27
2019-05-10T11:47:31.520Z,74.60
2019-05-10T11:49:57.408Z,74.45
2019-05-10T11:52:23.261Z,75.26
2019-05-10T11:54:51.435Z,76.38
2019-05-10T11:57:17.381Z,76.54
2019-05-10T11:59:43.248Z,75.42
2019-05-10T12:02:10.573Z,74.82
2019-05-10T12:04:39.497Z,75.59
2019-05-10T12:09:34.582Z,75.82
2019-05-10T12:12:03.423Z,75.57
2019-05-10T12:14:28.262Z,75.66
2019-05-10T12:16:54.730Z,74.76
2019-05-10T12:19:21.501Z,74.66
2019-05-10T12:21:47.494Z,74.37
2019-05-10T12:24:32.551Z,73.43
2019-05-10T12:26:19.808Z,74.97
2019-05-10T12:27:13.339Z,73.41
2019-05-10T12:29:13.456Z,74.01
2019-05-10T12:31:36.801Z,72.08
2019-05-10T12:34:09.283Z,71.46
2019-05-10T12:36:31.409Z,70.37
2019-05-10T12:38:58.952Z,69.86
2019-05-10T12:41:25.189Z,69.32
2019-05-10T12:43:51.722Z,63.77
2019-05-10T12:46:17.840Z,64.64
2019-05-10T12:48:43.694Z,64.14
2019-05-10T12:51:12.638Z,65.80
2019-05-10T12:53:44.561Z,65.59
2019-05-10T12:56:05.218Z,65.34
2019-05-10T12:58:31.142Z,64.72
2019-05-10T13:00:59.088Z,64.71
2019-05-10T13:03:30.688Z,64.23
2019-05-10T13:05:53.564Z,64.36
2019-05-10T13:08:19.657Z,63.61
2019-05-10T13:10:49.425Z,63.10
2019-05-10T13:13:17.626Z,62.87
2019-05-10T13:15:41.055Z,62.95
2019-05-10T13:18:06.903Z,63.94
2019-05-10T13:20:36.483Z,63.56
2019-05-10T13:23:00.550Z,63.24
2019-05-10T13:25:26.397Z,63.11
2019-05-10T13:27:52.265Z,63.14
2019-05-10T13:30:27.478Z,63.34
2019-05-10T13:32:46.390Z,64.53
2019-05-10T13:35:12.367Z,64.58
2019-05-10T13:37:38.227Z,65.25
2019-05-10T13:40:06.242Z,65.55
2019-05-10T13:44:53.774Z,64.84
2019-05-10T13:47:19.630Z,65.18
2019-05-10T13:49:48.637Z,65.02
2019-05-10T13:52:13.252Z,64.81
2019-05-10T13:54:39.128Z,65.00
2019-05-10T13:57:04.985Z,64.97
2019-05-10T13:59:30.849Z,65.61
2019-05-10T14:01:56.715Z,65.29
2019-05-10T14:04:23.278Z,65.70
2019-05-10T14:06:49.274Z,66.19
2019-05-10T14:09:15.128Z,66.81
2019-05-10T14:11:46.449Z,68.30
2019-05-10T14:14:14.700Z,68.10
2019-05-10T14:16:36.568Z,70.24
2019-05-10T14:19:02.715Z,70.88
2019-05-10T14:21:28.584Z,71.28
2019-05-10T14:23:56.801Z,71.13
2019-05-10T14:26:22.188Z,71.34
2019-05-10T14:28:53.106Z,71.41
2019-05-10T14:31:15.905Z,70.45
2019-05-10T14:33:41.759Z,70.45
2019-05-10T14:36:07.613Z,69.69
2019-05-10T14:38:33.470Z,70.05
2019-05-10T14:41:03.976Z,68.75
2019-05-10T14:43:27.191Z,68.60
2019-05-10T14:45:53.063Z,68.50
2019-05-10T14:48:28.136Z,66.95
2019-05-10T14:50:47.228Z,67.20
2019-05-10T14:53:13.265Z,68.04
2019-05-10T14:55:39.132Z,67.29
2019-05-10T14:58:04.983Z,66.27
2019-05-10T15:00:30.840Z,68.04
2019-05-10T15:03:01.923Z,66.97
2019-05-10T15:05:24.752Z,66.37
2019-05-10T15:07:51.298Z,64.80
2019-05-10T15:10:17.327Z,64.15
2019-05-10T15:12:43.189Z,64.55
2019-05-10T15:15:09.400Z,65.05
2019-05-10T15:17:35.286Z,64.11
2019-05-10T15:20:02.147Z,64.09
2019-05-10T15:22:27.990Z,63.21
2019-05-10T15:24:53.857Z,62.83
2019-05-10T15:27:21.796Z,60.77
2019-05-10T15:29:47.491Z,61.09
2019-05-10T15:32:13.354Z,60.22
2019-05-10T15:34:39.211Z,60.47
2019-05-10T15:37:09.325Z,60.31
2019-05-10T15:39:32.822Z,60.70
2019-05-10T15:42:00.559Z,60.58
2019-05-10T15:44:31.402Z,56.53
2019-05-10T15:46:54.202Z,58.38
2019-05-10T15:49:23.272Z,55.76
2019-05-10T15:51:49.145Z,56.05
2019-05-10T15:54:15.641Z,54.78
2019-05-10T15:56:43.992Z,53.37
2019-05-10T15:59:12.973Z,53.95
2019-05-10T16:01:37.176Z,55.54
2019-05-10T16:04:03.629Z,55.16
2019-05-10T16:06:32.492Z,54.46
2019-05-10T16:08:57.385Z,54.64
2019-05-10T16:11:23.295Z,54.54
2019-05-10T16:13:49.160Z,55.22
2019-05-10T16:16:15.020Z,54.44
2019-05-10T16:18:41.757Z,55.67
2019-05-10T16:21:09.732Z,53.57
2019-05-10T16:23:35.517Z,54.80
2019-05-10T16:26:01.378Z,53.50
2019-05-10T16:28:27.245Z,53.17
2019-05-10T16:30:53.099Z,52.69
2019-05-10T16:33:18.949Z,52.54
2019-05-10T16:35:49.547Z,53.57
2019-05-10T16:38:12.806Z,53.24
2019-05-10T16:40:38.657Z,52.50
2019-05-10T16:43:06.934Z,52.13
2019-05-10T16:45:32.285Z,53.25
2019-05-10T16:47:58.136Z,54.06
2019-05-10T16:50:26.045Z,55.65
2019-05-10T16:52:51.784Z,56.14
2019-05-10T16:55:17.634Z,55.60
2019-05-10T16:57:43.509Z,57.26
2019-05-10T17:00:10.624Z,56.79
2019-05-10T17:02:41.874Z,57.73
2019-05-10T17:05:09.708Z,56.70
2019-05-10T17:07:33.773Z,56.56
2019-05-10T17:09:59.620Z,55.00
2019-05-10T17:12:27.721Z,56.92
2019-05-10T17:14:56.515Z,55.61
2019-05-10T17:17:20.997Z,55.32
2019-05-10T17:19:46.951Z,55.37
2019-05-10T17:22:12.822Z,56.90
2019-05-10T17:24:38.665Z,56.14
2019-05-10T17:27:04.514Z,55.50
2019-05-10T17:29:30.372Z,56.45
2019-05-10T17:31:56.681Z,58.34
2019-05-10T17:34:29.062Z,57.57
2019-05-10T17:36:51.832Z,58.85
2019-05-10T17:39:18.086Z,57.64
2019-05-10T17:41:43.933Z,57.92
2019-05-10T17:44:09.880Z,58.76
2019-05-10T17:46:36.498Z,58.24
2019-05-10T17:49:03.149Z,58.53
2019-05-10T17:51:28.997Z,58.89
2019-05-10T17:54:01.645Z,58.21
2019-05-10T17:56:22.621Z,58.17
2019-05-10T17:58:48.482Z,58.06
2019-05-10T18:01:14.325Z,58.13
2019-05-10T18:03:40.193Z,57.93
2019-05-10T18:06:06.063Z,58.57
2019-05-10T18:08:31.907Z,59.50
2019-05-10T18:11:04.113Z,59.93
2019-05-10T18:13:26.393Z,60.65
2019-05-10T18:15:52.240Z,61.73
2019-05-10T18:18:18.104Z,61.15
2019-05-10T18:20:44.639Z,63.23
2019-05-10T18:23:20.084Z,63.03
2019-05-10T18:25:38.473Z,62.92
2019-05-10T18:28:04.326Z,61.18
2019-05-10T18:30:30.181Z,63.78
2019-05-10T18:32:56.033Z,62.00
2019-05-10T18:35:21.890Z,63.51
2019-05-10T18:37:47.746Z,63.50
2019-05-10T18:40:13.905Z,65.36
2019-05-10T18:42:39.861Z,65.20
2019-05-10T18:45:06.512Z,66.71
2019-05-10T18:47:32.373Z,66.56
2019-05-10T18:49:58.226Z,65.85
2019-05-10T18:52:24.171Z,65.52
2019-05-10T18:54:50.046Z,65.25
2019-05-10T18:57:19.258Z,64.92
2019-05-10T18:59:45.489Z,66.28
2019-05-10T19:02:11.849Z,65.66
2019-05-10T19:04:39.215Z,65.84
2019-05-10T19:07:09.727Z,66.44
2019-05-10T19:09:32.821Z,67.43
2019-05-10T19:11:58.780Z,67.95
2019-05-10T19:14:29.622Z,68.75
2019-05-10T19:16:52.422Z,67.13
2019-05-10T19:19:18.311Z,68.16
2019-05-10T19:21:44.165Z,68.29
2019-05-10T19:24:10.054Z,68.51
2019-05-10T19:26:35.907Z,68.89
2019-05-10T19:29:05.374Z,69.28
2019-05-10T19:31:31.739Z,69.22
2019-05-10T19:33:58.347Z,69.74
2019-05-10T19:36:24.304Z,70.73
2019-05-10T19:38:50.179Z,70.25
2019-05-10T19:41:20.116Z,72.64
2019-05-10T19:43:43.812Z,73.22
2019-05-10T19:46:09.661Z,72.89
2019-05-10T19:48:36.925Z,73.11
2019-05-10T19:51:09.739Z,73.49
2019-05-10T19:53:30.693Z,74.15
2019-05-10T19:55:58.786Z,74.48
2019-05-10T19:58:26.367Z,72.94
2019-05-10T20:00:52.456Z,73.49
2019-05-10T20:03:18.316Z,73.78
2019-05-10T20:05:44.180Z,74.54
2019-05-10T20:08:10.043Z,75.23
2019-05-10T20:10:35.929Z,74.97
2019-05-10T20:13:01.781Z,76.05
2019-05-10T20:15:27.629Z,75.62
2019-05-10T20:17:53.499Z,75.87
2019-05-10T20:20:19.349Z,75.74
2019-05-10T20:22:45.201Z,75.72
2019-05-10T20:25:11.366Z,76.71
2019-05-10T20:27:37.309Z,76.81
2019-05-10T20:30:04.460Z,76.97
2019-05-10T20:32:30.324Z,76.77
2019-05-10T20:34:56.179Z,77.58
2019-05-10T20:37:22.037Z,77.53
2019-05-10T20:39:47.905Z,77.27
2019-05-10T20:42:13.756Z,77.24
2019-05-10T20:44:39.613Z,77.15
2019-05-10T20:47:05.475Z,76.12
2019-05-10T20:49:31.357Z,75.41
2019-05-10T20:51:57.355Z,75.01
2019-05-10T20:54:23.186Z,74.46
2019-05-10T20:56:49.039Z,73.74
2019-05-10T20:59:15.398Z,72.54
2019-05-10T21:01:41.266Z,73.82
2019-05-10T21:04:07.133Z,74.31
2019-05-10T21:06:33.030Z,73.63
2019-05-10T21:08:59.726Z,74.42
2019-05-10T21:11:25.587Z,73.63
2019-05-10T21:13:51.437Z,74.50
2019-05-10T21:16:17.298Z,74.84
2019-05-10T21:18:43.165Z,75.30
2019-05-10T21:21:09.019Z,76.13
2019-05-10T21:23:34.874Z,76.36
2019-05-10T21:26:00.749Z,76.21
2019-05-10T21:28:26.613Z,75.30
2019-05-10T21:30:53.663Z,75.68
2019-05-10T21:33:19.695Z,75.85
2019-05-10T21:35:45.554Z,76.20
2019-05-10T21:38:11.505Z,76.48
2019-05-10T21:40:37.536Z,77.19
2019-05-10T21:43:03.393Z,76.95
2019-05-10T21:45:29.241Z,75.25
2019-05-10T21:47:55.097Z,73.94
2019-05-10T21:50:20.955Z,73.86
2019-05-10T21:52:46.841Z,78.32
2019-05-10T21:55:12.756Z,78.00
2019-05-10T21:57:38.705Z,76.41
2019-05-10T22:00:06.210Z,76.91
2019-05-10T22:02:32.074Z,77.85
2019-05-10T22:04:57.942Z,77.13
2019-05-10T22:07:23.798Z,77.34
2019-05-10T22:09:49.766Z,77.23
2019-05-10T22:12:15.630Z,77.68
2019-05-10T22:14:41.519Z,77.45
2019-05-10T22:17:07.376Z,77.65
2019-05-10T22:19:33.229Z,77.78
2019-05-10T22:21:59.096Z,76.99
2019-05-10T22:24:24.992Z,76.50
2019-05-10T22:26:50.848Z,77.59
2019-05-10T22:29:16.701Z,77.98
2019-05-10T22:31:42.549Z,78.68
2019-05-10T22:34:08.417Z,77.92
2019-05-10T22:36:34.265Z,77.82
2019-05-10T22:39:07.220Z,76.86
2019-05-10T22:41:27.922Z,78.85
2019-05-10T22:43:53.772Z,79.83
2019-05-10T22:46:19.621Z,80.04
2019-05-10T22:48:45.557Z,79.17
2019-05-10T22:51:11.402Z,79.53
2019-05-10T22:53:37.412Z,79.32
2019-05-10T22:56:03.487Z,79.01
2019-05-10T22:58:29.334Z,78.25
2019-05-10T23:00:55.190Z,78.36
2019-05-10T23:03:24.412Z,77.60
2019-05-10T23:05:48.807Z,78.89
2019-05-10T23:08:14.683Z,79.02
2019-05-10T23:10:40.530Z,79.34
2019-05-10T23:13:06.388Z,79.59
2019-05-10T23:15:32.265Z,78.78
2019-05-10T23:17:58.129Z,80.37
2019-05-10T23:20:23.990Z,79.91
2019-05-10T23:22:49.839Z,79.17
2019-05-10T23:25:15.694Z,79.49
2019-05-10T23:27:41.616Z,79.24
2019-05-10T23:30:07.973Z,78.66
2019-05-10T23:32:33.825Z,79.66
2019-05-10T23:34:59.713Z,79.81
2019-05-10T23:37:25.564Z,81.25
2019-05-10T23:39:51.417Z,81.18
2019-05-10T23:42:17.286Z,80.39
2019-05-10T23:44:43.510Z,79.10
2019-05-10T23:47:09.368Z,80.15
2019-05-10T23:49:35.246Z,79.67
2019-05-10T23:52:01.200Z,79.49
2019-05-10T23:54:27.111Z,80.12
2019-05-10T23:56:53.043Z,79.83
2019-05-10T23:59:18.962Z,80.71
